sensor_id;sensor_type;location;lat;lon;timestamp;pressure;altitude;pressure_sealevel;temperature;humidity
3142;BME280;1581;51.568;6.998;2023-01-31T00:01:55;101713.88;;;4.35;100.00
3142;BME280;1581;51.568;6.998;2023-01-31T00:04:23;101720.25;;;4.33;100.00
3142;BME280;1581;51.568;6.998;2023-01-31T00:06:51;101710.53;;;4.33;100.00
3142;BME280;1581;51.568;6.998;2023-01-31T00:09:23;101710.00;;;4.39;100.00
3142;BME280;1581;51.568;6.998;2023-01-31T00:11:52;101701.06;;;4.31;100.00
3142;BME280;1581;51.568;6.998;2023-01-31T00:14:20;101715.94;;;4.32;100.00
3142;BME280;1581;51.568;6.998;2023-01-31T00:16:48;101723.50;;;4.25;100.00
3142;BME280;1581;51.568;6.998;2023-01-31T00:19:17;101722.94;;;4.22;100.00
3142;BME280;1581;51.568;6.998;2023-01-31T00:21:45;101709.47;;;4.25;100.00
3142;BME280;1581;51.568;6.998;2023-01-31T00:24:15;101704.91;;;4.27;100.00
3142;BME280;1581;51.568;6.998;2023-01-31T00:26:42;101717.31;;;4.47;100.00
3142;BME280;1581;51.568;6.998;2023-01-31T00:29:11;101717.63;;;4.33;100.00
3142;BME280;1581;51.568;6.998;2023-01-31T00:31:39;101711.03;;;4.27;100.00
3142;BME280;1581;51.568;6.998;2023-01-31T00:34:07;101709.69;;;4.33;100.00
3142;BME280;1581;51.568;6.998;2023-01-31T00:36:35;101708.03;;;4.52;100.00
3142;BME280;1581;51.568;6.998;2023-01-31T00:39:05;101700.38;;;4.49;100.00
3142;BME280;1581;51.568;6.998;2023-01-31T00:41:37;101706.78;;;4.36;100.00
3142;BME280;1581;51.568;6.998;2023-01-31T00:44:05;101704.69;;;4.50;100.00
3142;BME280;1581;51.568;6.998;2023-01-31T00:46:34;101706.16;;;4.43;100.00
3142;BME280;1581;51.568;6.998;2023-01-31T00:49:02;101705.00;;;4.36;100.00
3142;BME280;1581;51.568;6.998;2023-01-31T00:51:30;101698.09;;;4.24;100.00
3142;BME280;1581;51.568;6.998;2023-01-31T00:53:58;101705.97;;;4.35;100.00
3142;BME280;1581;51.568;6.998;2023-01-31T00:56:25;101705.72;;;4.38;100.00
3142;BME280;1581;51.568;6.998;2023-01-31T00:58:53;101705.41;;;4.52;100.00
3142;BME280;1581;51.568;6.998;2023-01-31T01:01:24;101712.94;;;4.57;100.00
3142;BME280;1581;51.568;6.998;2023-01-31T01:03:54;101704.00;;;4.48;100.00
3142;BME280;1581;51.568;6.998;2023-01-31T01:06:23;101709.81;;;4.31;100.00
3142;BME280;1581;51.568;6.998;2023-01-31T01:08:51;101710.06;;;4.60;100.00
3142;BME280;1581;51.568;6.998;2023-01-31T01:11:22;101718.50;;;4.54;100.00
3142;BME280;1581;51.568;6.998;2023-01-31T01:13:50;101712.88;;;4.47;100.00
3142;BME280;1581;51.568;6.998;2023-01-31T01:16:21;101712.66;;;4.39;100.00
3142;BME280;1581;51.568;6.998;2023-01-31T01:18:49;101709.84;;;4.52;100.00
3142;BME280;1581;51.568;6.998;2023-01-31T01:21:20;101710.38;;;4.35;100.00
3142;BME280;1581;51.568;6.998;2023-01-31T01:23:49;101706.88;;;4.45;100.00
3142;BME280;1581;51.568;6.998;2023-01-31T01:26:21;101698.53;;;4.29;100.00
3142;BME280;1581;51.568;6.998;2023-01-31T01:28:51;101700.16;;;4.21;100.00
3142;BME280;1581;51.568;6.998;2023-01-31T01:31:20;101700.47;;;4.27;100.00
3142;BME280;1581;51.568;6.998;2023-01-31T01:33:56;101707.50;;;4.38;100.00
3142;BME280;1581;51.568;6.998;2023-01-31T01:36:26;101703.91;;;4.39;100.00
3142;BME280;1581;51.568;6.998;2023-01-31T01:38:55;101698.22;;;4.23;100.00
3142;BME280;1581;51.568;6.998;2023-01-31T01:41:23;101698.78;;;4.37;100.00
3142;BME280;1581;51.568;6.998;2023-01-31T01:43:53;101694.28;;;4.18;100.00
3142;BME280;1581;51.568;6.998;2023-01-31T01:46:27;101679.38;;;4.27;100.00
3142;BME280;1581;51.568;6.998;2023-01-31T01:49:02;101687.25;;;4.38;100.00
3142;BME280;1581;51.568;6.998;2023-01-31T01:51:33;101686.97;;;4.41;100.00
3142;BME280;1581;51.568;6.998;2023-01-31T01:54:05;101689.50;;;4.43;100.00
3142;BME280;1581;51.568;6.998;2023-01-31T01:56:38;101685.44;;;4.39;100.00
3142;BME280;1581;51.568;6.998;2023-01-31T01:59:13;101690.75;;;4.28;100.00
3142;BME280;1581;51.568;6.998;2023-01-31T02:01:42;101694.84;;;4.52;100.00
3142;BME280;1581;51.568;6.998;2023-01-31T02:04:16;101693.53;;;4.26;100.00
3142;BME280;1581;51.568;6.998;2023-01-31T02:06:47;101696.88;;;4.28;100.00
3142;BME280;1581;51.568;6.998;2023-01-31T02:09:23;101703.38;;;4.24;100.00
3142;BME280;1581;51.568;6.998;2023-01-31T02:11:58;101708.34;;;4.38;100.00
3142;BME280;1581;51.568;6.998;2023-01-31T02:14:26;101708.00;;;4.63;100.00
3142;BME280;1581;51.568;6.998;2023-01-31T02:16:55;101709.59;;;4.55;100.00
3142;BME280;1581;51.568;6.998;2023-01-31T02:19:34;101711.53;;;4.53;100.00
3142;BME280;1581;51.568;6.998;2023-01-31T02:22:16;101713.16;;;4.33;100.00
3142;BME280;1581;51.568;6.998;2023-01-31T02:25:29;101723.44;;;4.68;100.00
3142;BME280;1581;51.568;6.998;2023-01-31T02:28:37;101727.09;;;4.56;100.00
3142;BME280;1581;51.568;6.998;2023-01-31T02:34:44;101731.94;;;4.51;100.00
3142;BME280;1581;51.568;6.998;2023-01-31T02:37:24;101725.84;;;4.39;100.00
3142;BME280;1581;51.568;6.998;2023-01-31T02:40:06;101728.28;;;4.31;100.00
3142;BME280;1581;51.568;6.998;2023-01-31T02:42:49;101719.91;;;4.26;100.00
3142;BME280;1581;51.568;6.998;2023-01-31T02:45:28;101720.56;;;4.39;100.00
3142;BME280;1581;51.568;6.998;2023-01-31T02:48:12;101722.94;;;4.22;100.00
3142;BME280;1581;51.568;6.998;2023-01-31T02:50:48;101714.06;;;4.23;100.00
3142;BME280;1581;51.568;6.998;2023-01-31T02:53:25;101704.50;;;4.42;100.00
3142;BME280;1581;51.568;6.998;2023-01-31T02:55:59;101722.28;;;4.29;100.00
3142;BME280;1581;51.568;6.998;2023-01-31T02:58:52;101709.75;;;4.11;100.00
3142;BME280;1581;51.568;6.998;2023-01-31T03:01:25;101719.75;;;4.39;100.00
3142;BME280;1581;51.568;6.998;2023-01-31T03:03:57;101705.66;;;4.18;100.00
3142;BME280;1581;51.568;6.998;2023-01-31T03:07:00;101704.91;;;4.27;100.00
3142;BME280;1581;51.568;6.998;2023-01-31T03:09:51;101700.16;;;4.10;100.00
3142;BME280;1581;51.568;6.998;2023-01-31T03:12:46;101696.59;;;4.00;100.00
3142;BME280;1581;51.568;6.998;2023-01-31T03:15:36;101692.78;;;4.04;100.00
3142;BME280;1581;51.568;6.998;2023-01-31T03:18:27;101693.19;;;4.20;100.00
3142;BME280;1581;51.568;6.998;2023-01-31T03:21:01;101695.22;;;4.27;100.00
3142;BME280;1581;51.568;6.998;2023-01-31T03:23:33;101691.63;;;4.49;100.00
3142;BME280;1581;51.568;6.998;2023-01-31T03:26:06;101686.19;;;4.30;100.00
3142;BME280;1581;51.568;6.998;2023-01-31T03:28:35;101685.13;;;4.22;100.00
3142;BME280;1581;51.568;6.998;2023-01-31T03:31:12;101695.09;;;4.18;100.00
3142;BME280;1581;51.568;6.998;2023-01-31T03:33:45;101679.72;;;4.54;100.00
3142;BME280;1581;51.568;6.998;2023-01-31T03:36:23;101680.69;;;4.33;100.00
3142;BME280;1581;51.568;6.998;2023-01-31T03:39:02;101674.31;;;4.35;100.00
3142;BME280;1581;51.568;6.998;2023-01-31T03:41:42;101663.75;;;4.35;100.00
3142;BME280;1581;51.568;6.998;2023-01-31T03:44:18;101652.34;;;4.35;100.00
3142;BME280;1581;51.568;6.998;2023-01-31T03:46:50;101646.03;;;4.26;100.00
3142;BME280;1581;51.568;6.998;2023-01-31T03:49:20;101645.19;;;4.26;100.00
3142;BME280;1581;51.568;6.998;2023-01-31T03:51:56;101634.25;;;4.10;100.00
3142;BME280;1581;51.568;6.998;2023-01-31T03:54:30;101625.38;;;4.11;100.00
3142;BME280;1581;51.568;6.998;2023-01-31T03:57:03;101623.16;;;4.16;100.00
3142;BME280;1581;51.568;6.998;2023-01-31T03:59:38;101621.63;;;4.14;100.00
3142;BME280;1581;51.568;6.998;2023-01-31T04:02:11;101616.69;;;4.20;100.00
3142;BME280;1581;51.568;6.998;2023-01-31T04:04:46;101611.13;;;4.34;100.00
3142;BME280;1581;51.568;6.998;2023-01-31T04:07:16;101620.44;;;4.18;100.00
3142;BME280;1581;51.568;6.998;2023-01-31T04:09:45;101625.38;;;4.11;100.00
3142;BME280;1581;51.568;6.998;2023-01-31T04:12:14;101620.66;;;4.15;100.00
3142;BME280;1581;51.568;6.998;2023-01-31T04:14:42;101617.91;;;4.16;100.00
3142;BME280;1581;51.568;6.998;2023-01-31T04:17:10;101616.28;;;4.04;100.00
3142;BME280;1581;51.568;6.998;2023-01-31T04:19:37;101616.03;;;4.07;100.00
3142;BME280;1581;51.568;6.998;2023-01-31T04:22:05;101621.16;;;4.40;100.00
3142;BME280;1581;51.568;6.998;2023-01-31T04:24:33;101627.19;;;4.31;100.00
3142;BME280;1581;51.568;6.998;2023-01-31T04:27:02;101627.19;;;4.31;100.00
3142;BME280;1581;51.568;6.998;2023-01-31T04:29:30;101623.88;;;4.18;100.00
3142;BME280;1581;51.568;6.998;2023-01-31T04:31:57;101627.63;;;4.16;100.00
3142;BME280;1581;51.568;6.998;2023-01-31T04:34:25;101630.84;;;4.19;100.00
3142;BME280;1581;51.568;6.998;2023-01-31T04:36:53;101633.16;;;4.13;100.00
3142;BME280;1581;51.568;6.998;2023-01-31T04:39:20;101630.22;;;4.26;100.00
3142;BME280;1581;51.568;6.998;2023-01-31T04:41:48;101631.56;;;4.21;100.00
3142;BME280;1581;51.568;6.998;2023-01-31T04:44:16;101635.56;;;4.36;100.00
3142;BME280;1581;51.568;6.998;2023-01-31T04:46:44;101632.00;;;4.26;100.00
3142;BME280;1581;51.568;6.998;2023-01-31T04:49:12;101620.38;;;4.28;100.00
3142;BME280;1581;51.568;6.998;2023-01-31T04:51:40;101621.41;;;4.37;100.00
3142;BME280;1581;51.568;6.998;2023-01-31T04:54:08;101623.13;;;4.27;100.00
3142;BME280;1581;51.568;6.998;2023-01-31T04:56:36;101618.50;;;4.40;100.00
3142;BME280;1581;51.568;6.998;2023-01-31T04:59:03;101607.72;;;4.43;100.00
3142;BME280;1581;51.568;6.998;2023-01-31T05:01:32;101613.41;;;4.48;100.00
3142;BME280;1581;51.568;6.998;2023-01-31T05:04:00;101610.00;;;4.57;100.00
3142;BME280;1581;51.568;6.998;2023-01-31T05:06:28;101604.09;;;4.64;100.00
3142;BME280;1581;51.568;6.998;2023-01-31T05:08:55;101597.91;;;4.54;100.00
3142;BME280;1581;51.568;6.998;2023-01-31T05:11:26;101604.00;;;4.55;100.00
3142;BME280;1581;51.568;6.998;2023-01-31T05:13:54;101598.47;;;4.58;100.00
3142;BME280;1581;51.568;6.998;2023-01-31T05:16:21;101586.88;;;4.70;100.00
3142;BME280;1581;51.568;6.998;2023-01-31T05:18:50;101588.66;;;4.90;100.00
3142;BME280;1581;51.568;6.998;2023-01-31T05:21:18;101599.31;;;4.79;100.00
3142;BME280;1581;51.568;6.998;2023-01-31T05:23:46;101584.91;;;4.92;100.00
3142;BME280;1581;51.568;6.998;2023-01-31T05:26:15;101584.19;;;4.90;100.00
3142;BME280;1581;51.568;6.998;2023-01-31T05:28:42;101573.94;;;4.87;100.00
3142;BME280;1581;51.568;6.998;2023-01-31T05:31:13;101572.16;;;4.67;100.00
3142;BME280;1581;51.568;6.998;2023-01-31T05:33:41;101579.69;;;4.72;100.00
3142;BME280;1581;51.568;6.998;2023-01-31T05:36:10;101581.16;;;4.65;100.00
3142;BME280;1581;51.568;6.998;2023-01-31T05:38:38;101572.00;;;4.69;100.00
3142;BME280;1581;51.568;6.998;2023-01-31T05:41:06;101576.59;;;4.67;100.00
3142;BME280;1581;51.568;6.998;2023-01-31T05:43:33;101562.75;;;4.74;100.00
3142;BME280;1581;51.568;6.998;2023-01-31T05:46:01;101563.94;;;4.91;100.00
3142;BME280;1581;51.568;6.998;2023-01-31T05:48:29;101565.44;;;4.84;100.00
3142;BME280;1581;51.568;6.998;2023-01-31T05:50:57;101561.63;;;4.77;100.00
3142;BME280;1581;51.568;6.998;2023-01-31T05:53:26;101554.66;;;4.76;100.00
3142;BME280;1581;51.568;6.998;2023-01-31T05:55:54;101546.75;;;4.76;100.00
3142;BME280;1581;51.568;6.998;2023-01-31T05:58:21;101541.69;;;4.63;100.00
3142;BME280;1581;51.568;6.998;2023-01-31T06:00:49;101522.69;;;4.69;100.00
3142;BME280;1581;51.568;6.998;2023-01-31T06:03:16;101529.34;;;4.64;100.00
3142;BME280;1581;51.568;6.998;2023-01-31T06:05:44;101525.53;;;4.77;100.00
3142;BME280;1581;51.568;6.998;2023-01-31T06:08:12;101514.91;;;4.68;100.00
3142;BME280;1581;51.568;6.998;2023-01-31T06:10:41;101523.94;;;4.65;100.00
3142;BME280;1581;51.568;6.998;2023-01-31T06:13:09;101521.53;;;4.62;100.00
3142;BME280;1581;51.568;6.998;2023-01-31T06:15:36;101523.88;;;4.56;100.00
3142;BME280;1581;51.568;6.998;2023-01-31T06:18:08;101524.25;;;4.72;100.00
3142;BME280;1581;51.568;6.998;2023-01-31T06:20:36;101517.78;;;4.55;100.00
3142;BME280;1581;51.568;6.998;2023-01-31T06:23:04;101519.78;;;4.72;100.00
3142;BME280;1581;51.568;6.998;2023-01-31T06:25:32;101523.47;;;4.60;100.00
3142;BME280;1581;51.568;6.998;2023-01-31T06:28:01;101523.56;;;4.79;100.00
3142;BME280;1581;51.568;6.998;2023-01-31T06:30:29;101535.38;;;4.75;100.00
3142;BME280;1581;51.568;6.998;2023-01-31T06:32:59;101536.66;;;4.90;100.00
3142;BME280;1581;51.568;6.998;2023-01-31T06:35:26;101535.13;;;4.58;100.00
3142;BME280;1581;51.568;6.998;2023-01-31T06:37:54;101530.88;;;4.66;100.00
3142;BME280;1581;51.568;6.998;2023-01-31T06:40:22;101538.41;;;4.71;100.00
3142;BME280;1581;51.568;6.998;2023-01-31T06:42:49;101540.81;;;4.83;100.00
3142;BME280;1581;51.568;6.998;2023-01-31T06:45:19;101548.16;;;4.80;100.00
3142;BME280;1581;51.568;6.998;2023-01-31T06:47:46;101537.56;;;4.70;100.00
3142;BME280;1581;51.568;6.998;2023-01-31T06:50:14;101533.03;;;4.82;100.00
3142;BME280;1581;51.568;6.998;2023-01-31T06:52:42;101545.47;;;4.70;100.00
3142;BME280;1581;51.568;6.998;2023-01-31T06:55:10;101550.72;;;4.91;100.00
3142;BME280;1581;51.568;6.998;2023-01-31T06:57:46;101545.38;;;4.72;100.00
3142;BME280;1581;51.568;6.998;2023-01-31T07:00:15;101558.25;;;4.95;100.00
3142;BME280;1581;51.568;6.998;2023-01-31T07:02:45;101548.75;;;4.83;100.00
3142;BME280;1581;51.568;6.998;2023-01-31T07:05:13;101558.09;;;4.97;100.00
3142;BME280;1581;51.568;6.998;2023-01-31T07:07:41;101549.97;;;4.79;100.00
3142;BME280;1581;51.568;6.998;2023-01-31T07:10:10;101562.59;;;5.06;100.00
3142;BME280;1581;51.568;6.998;2023-01-31T07:12:41;101551.03;;;4.97;100.00
3142;BME280;1581;51.568;6.998;2023-01-31T07:15:11;101553.19;;;5.12;100.00
3142;BME280;1581;51.568;6.998;2023-01-31T07:17:39;101553.94;;;5.33;100.00
3142;BME280;1581;51.568;6.998;2023-01-31T07:20:10;101535.41;;;5.24;100.00
3142;BME280;1581;51.568;6.998;2023-01-31T07:22:38;101549.13;;;5.08;100.00
3142;BME280;1581;51.568;6.998;2023-01-31T07:25:07;101545.97;;;5.24;100.00
3142;BME280;1581;51.568;6.998;2023-01-31T07:27:34;101538.91;;;5.34;100.00
3142;BME280;1581;51.568;6.998;2023-01-31T07:30:03;101535.53;;;5.22;100.00
3142;BME280;1581;51.568;6.998;2023-01-31T07:32:31;101545.09;;;5.14;100.00
3142;BME280;1581;51.568;6.998;2023-01-31T07:34:59;101547.09;;;5.21;100.00
3142;BME280;1581;51.568;6.998;2023-01-31T07:37:28;101544.03;;;5.35;100.00
3142;BME280;1581;51.568;6.998;2023-01-31T07:39:56;101541.38;;;5.35;100.00
3142;BME280;1581;51.568;6.998;2023-01-31T07:42:23;101535.84;;;5.38;100.00
3142;BME280;1581;51.568;6.998;2023-01-31T07:44:51;101530.84;;;5.54;100.00
3142;BME280;1581;51.568;6.998;2023-01-31T07:47:19;101532.38;;;5.38;100.00
3142;BME280;1581;51.568;6.998;2023-01-31T07:49:46;101522.38;;;5.41;100.00
3142;BME280;1581;51.568;6.998;2023-01-31T07:52:15;101534.34;;;5.64;100.00
3142;BME280;1581;51.568;6.998;2023-01-31T07:54:44;101526.13;;;5.48;100.00
3142;BME280;1581;51.568;6.998;2023-01-31T07:57:11;101526.50;;;5.34;100.00
3142;BME280;1581;51.568;6.998;2023-01-31T07:59:39;101510.09;;;5.21;100.00
3142;BME280;1581;51.568;6.998;2023-01-31T08:02:10;101513.88;;;5.38;100.00
3142;BME280;1581;51.568;6.998;2023-01-31T08:04:58;101518.72;;;5.33;100.00
3142;BME280;1581;51.568;6.998;2023-01-31T08:07:26;101516.53;;;5.47;100.00
3142;BME280;1581;51.568;6.998;2023-01-31T08:09:56;101504.28;;;5.65;100.00
3142;BME280;1581;51.568;6.998;2023-01-31T08:12:23;101513.19;;;5.55;100.00
3142;BME280;1581;51.568;6.998;2023-01-31T08:14:51;101514.31;;;5.52;100.00
3142;BME280;1581;51.568;6.998;2023-01-31T08:17:19;101511.66;;;5.62;100.00
3142;BME280;1581;51.568;6.998;2023-01-31T08:19:46;101517.25;;;5.59;100.00
3142;BME280;1581;51.568;6.998;2023-01-31T08:22:13;101513.75;;;5.58;100.00
3142;BME280;1581;51.568;6.998;2023-01-31T08:24:41;101512.09;;;5.57;100.00
3142;BME280;1581;51.568;6.998;2023-01-31T08:27:11;101506.22;;;5.44;100.00
3142;BME280;1581;51.568;6.998;2023-01-31T08:29:44;101507.06;;;5.54;100.00
3142;BME280;1581;51.568;6.998;2023-01-31T08:32:12;101500.25;;;5.42;100.00
3142;BME280;1581;51.568;6.998;2023-01-31T08:34:40;101493.13;;;5.24;100.00
3142;BME280;1581;51.568;6.998;2023-01-31T08:37:09;101486.72;;;5.26;100.00
3142;BME280;1581;51.568;6.998;2023-01-31T08:39:37;101478.25;;;5.42;100.00
3142;BME280;1581;51.568;6.998;2023-01-31T08:42:04;101477.69;;;5.38;100.00
3142;BME280;1581;51.568;6.998;2023-01-31T08:44:33;101472.56;;;5.46;100.00
3142;BME280;1581;51.568;6.998;2023-01-31T08:47:03;101457.53;;;5.28;100.00
3142;BME280;1581;51.568;6.998;2023-01-31T08:49:31;101451.97;;;5.31;100.00
3142;BME280;1581;51.568;6.998;2023-01-31T08:52:01;101454.75;;;5.29;100.00
3142;BME280;1581;51.568;6.998;2023-01-31T08:54:28;101450.31;;;5.39;100.00
3142;BME280;1581;51.568;6.998;2023-01-31T08:56:56;101445.03;;;5.39;100.00
3142;BME280;1581;51.568;6.998;2023-01-31T08:59:23;101448.22;;;5.33;100.00
3142;BME280;1581;51.568;6.998;2023-01-31T09:01:52;101439.72;;;5.30;100.00
3142;BME280;1581;51.568;6.998;2023-01-31T09:04:20;101430.41;;;5.45;100.00
3142;BME280;1581;51.568;6.998;2023-01-31T09:06:47;101435.44;;;5.48;100.00
3142;BME280;1581;51.568;6.998;2023-01-31T09:09:17;101441.28;;;5.51;100.00
3142;BME280;1581;51.568;6.998;2023-01-31T09:11:46;101436.00;;;5.32;100.00
3142;BME280;1581;51.568;6.998;2023-01-31T09:14:14;101433.06;;;5.64;100.00
3142;BME280;1581;51.568;6.998;2023-01-31T09:16:41;101426.53;;;5.77;100.00
3142;BME280;1581;51.568;6.998;2023-01-31T09:19:12;101430.56;;;5.81;100.00
3142;BME280;1581;51.568;6.998;2023-01-31T09:21:40;101434.47;;;5.77;100.00
3142;BME280;1581;51.568;6.998;2023-01-31T09:24:09;101437.09;;;5.77;100.00
3142;BME280;1581;51.568;6.998;2023-01-31T09:26:37;101438.34;;;5.83;100.00
3142;BME280;1581;51.568;6.998;2023-01-31T09:29:04;101428.63;;;5.83;100.00
3142;BME280;1581;51.568;6.998;2023-01-31T09:31:31;101427.22;;;5.79;100.00
3142;BME280;1581;51.568;6.998;2023-01-31T09:33:59;101425.41;;;5.80;100.00
3142;BME280;1581;51.568;6.998;2023-01-31T09:36:28;101423.72;;;5.88;100.00
3142;BME280;1581;51.568;6.998;2023-01-31T09:38:56;101418.56;;;5.96;100.00
3142;BME280;1581;51.568;6.998;2023-01-31T09:41:30;101413.13;;;5.97;100.00
3142;BME280;1581;51.568;6.998;2023-01-31T09:44:04;101418.00;;;5.93;100.00
3142;BME280;1581;51.568;6.998;2023-01-31T09:46:37;101403.22;;;5.99;100.00
3142;BME280;1581;51.568;6.998;2023-01-31T09:49:19;101403.13;;;6.28;100.00
3142;BME280;1581;51.568;6.998;2023-01-31T09:51:54;101417.34;;;6.27;100.00
3142;BME280;1581;51.568;6.998;2023-01-31T09:54:28;101412.22;;;6.25;100.00
3142;BME280;1581;51.568;6.998;2023-01-31T09:57:06;101413.44;;;6.31;100.00
3142;BME280;1581;51.568;6.998;2023-01-31T09:59:47;101400.16;;;6.04;100.00
3142;BME280;1581;51.568;6.998;2023-01-31T10:02:48;101396.06;;;6.19;100.00
3142;BME280;1581;51.568;6.998;2023-01-31T10:05:26;101400.81;;;6.15;100.00
3142;BME280;1581;51.568;6.998;2023-01-31T10:08:09;101386.91;;;6.13;100.00
3142;BME280;1581;51.568;6.998;2023-01-31T10:10:44;101386.53;;;6.35;100.00
3142;BME280;1581;51.568;6.998;2023-01-31T10:13:20;101392.13;;;6.32;100.00
3142;BME280;1581;51.568;6.998;2023-01-31T10:15:51;101374.28;;;6.34;100.00
3142;BME280;1581;51.568;6.998;2023-01-31T10:18:27;101377.28;;;6.12;100.00
3142;BME280;1581;51.568;6.998;2023-01-31T10:20:59;101374.56;;;6.31;100.00
3142;BME280;1581;51.568;6.998;2023-01-31T10:23:34;101362.47;;;6.29;100.00
3142;BME280;1581;51.568;6.998;2023-01-31T10:26:07;101377.72;;;6.44;100.00
3142;BME280;1581;51.568;6.998;2023-01-31T10:28:41;101367.81;;;6.46;100.00
3142;BME280;1581;51.568;6.998;2023-01-31T10:31:20;101364.75;;;6.41;100.00
3142;BME280;1581;51.568;6.998;2023-01-31T10:33:55;101379.84;;;6.31;100.00
3142;BME280;1581;51.568;6.998;2023-01-31T10:36:31;101372.22;;;6.55;100.00
3142;BME280;1581;51.568;6.998;2023-01-31T10:39:05;101375.50;;;6.13;100.00
3142;BME280;1581;51.568;6.998;2023-01-31T10:41:46;101370.03;;;6.51;100.00
3142;BME280;1581;51.568;6.998;2023-01-31T10:44:26;101364.06;;;6.39;100.00
3142;BME280;1581;51.568;6.998;2023-01-31T10:46:56;101361.69;;;6.46;100.00
3142;BME280;1581;51.568;6.998;2023-01-31T10:49:26;101356.53;;;6.17;100.00
3142;BME280;1581;51.568;6.998;2023-01-31T10:52:10;101364.47;;;6.17;100.00
3142;BME280;1581;51.568;6.998;2023-01-31T10:54:52;101330.28;;;5.97;100.00
3142;BME280;1581;51.568;6.998;2023-01-31T10:57:24;101329.13;;;6.09;100.00
3142;BME280;1581;51.568;6.998;2023-01-31T10:59:52;101338.38;;;6.49;100.00
3142;BME280;1581;51.568;6.998;2023-01-31T11:02:23;101335.78;;;6.67;100.00
3142;BME280;1581;51.568;6.998;2023-01-31T11:04:53;101338.88;;;6.62;100.00
3142;BME280;1581;51.568;6.998;2023-01-31T11:07:29;101342.69;;;6.33;100.00
3142;BME280;1581;51.568;6.998;2023-01-31T11:09:59;101333.34;;;6.56;100.00
3142;BME280;1581;51.568;6.998;2023-01-31T11:12:41;101336.91;;;6.64;100.00
3142;BME280;1581;51.568;6.998;2023-01-31T11:15:16;101322.97;;;6.62;100.00
3142;BME280;1581;51.568;6.998;2023-01-31T11:17:45;101334.47;;;6.53;100.00
3142;BME280;1581;51.568;6.998;2023-01-31T11:20:23;101332.69;;;6.71;100.00
3142;BME280;1581;51.568;6.998;2023-01-31T11:22:52;101326.13;;;6.75;100.00
3142;BME280;1581;51.568;6.998;2023-01-31T11:25:27;101321.25;;;7.05;100.00
3142;BME280;1581;51.568;6.998;2023-01-31T11:28:00;101321.72;;;7.18;100.00
3142;BME280;1581;51.568;6.998;2023-01-31T11:30:33;101321.13;;;7.07;100.00
3142;BME280;1581;51.568;6.998;2023-01-31T11:33:02;101314.16;;;6.88;100.00
3142;BME280;1581;51.568;6.998;2023-01-31T11:35:32;101321.31;;;7.31;100.00
3142;BME280;1581;51.568;6.998;2023-01-31T11:38:07;101309.84;;;6.87;100.00
3142;BME280;1581;51.568;6.998;2023-01-31T11:40:46;101310.06;;;7.11;100.00
3142;BME280;1581;51.568;6.998;2023-01-31T11:43:28;101293.88;;;6.97;100.00
3142;BME280;1581;51.568;6.998;2023-01-31T11:45:59;101279.31;;;7.18;100.00
3142;BME280;1581;51.568;6.998;2023-01-31T11:48:35;101289.38;;;7.15;100.00
3142;BME280;1581;51.568;6.998;2023-01-31T11:51:06;101306.50;;;7.03;100.00
3142;BME280;1581;51.568;6.998;2023-01-31T11:53:42;101304.25;;;7.08;100.00
3142;BME280;1581;51.568;6.998;2023-01-31T11:56:15;101294.75;;;7.05;100.00
3142;BME280;1581;51.568;6.998;2023-01-31T11:58:46;101297.22;;;7.24;100.00
3142;BME280;1581;51.568;6.998;2023-01-31T12:01:17;101293.78;;;7.24;100.00
3142;BME280;1581;51.568;6.998;2023-01-31T12:03:46;101304.59;;;6.95;100.00
3142;BME280;1581;51.568;6.998;2023-01-31T12:06:27;101290.22;;;7.15;100.00
3142;BME280;1581;51.568;6.998;2023-01-31T12:08:57;101289.09;;;7.00;100.00
3142;BME280;1581;51.568;6.998;2023-01-31T12:11:30;101281.84;;;6.85;100.00
3142;BME280;1581;51.568;6.998;2023-01-31T12:14:13;101291.81;;;6.91;100.00
3142;BME280;1581;51.568;6.998;2023-01-31T12:16:42;101286.28;;;6.84;100.00
3142;BME280;1581;51.568;6.998;2023-01-31T12:19:27;101294.69;;;6.97;100.00
3142;BME280;1581;51.568;6.998;2023-01-31T12:22:04;101291.28;;;7.05;100.00
3142;BME280;1581;51.568;6.998;2023-01-31T12:24:44;101265.78;;;7.04;100.00
3142;BME280;1581;51.568;6.998;2023-01-31T12:27:29;101256.84;;;6.87;100.00
3142;BME280;1581;51.568;6.998;2023-01-31T12:30:26;101249.94;;;6.94;100.00
3142;BME280;1581;51.568;6.998;2023-01-31T12:33:15;101247.59;;;7.09;100.00
3142;BME280;1581;51.568;6.998;2023-01-31T12:36:01;101245.78;;;7.09;100.00
3142;BME280;1581;51.568;6.998;2023-01-31T12:38:54;101244.91;;;7.26;100.00
3142;BME280;1581;51.568;6.998;2023-01-31T12:41:31;101239.03;;;7.15;100.00
3142;BME280;1581;51.568;6.998;2023-01-31T12:44:37;101235.25;;;7.43;100.00
3142;BME280;1581;51.568;6.998;2023-01-31T12:47:31;101235.22;;;6.92;100.00
3142;BME280;1581;51.568;6.998;2023-01-31T12:50:22;101241.22;;;7.19;100.00
3142;BME280;1581;51.568;6.998;2023-01-31T12:53:23;101239.94;;;7.23;100.00
3142;BME280;1581;51.568;6.998;2023-01-31T12:56:10;101243.63;;;7.30;100.00
3142;BME280;1581;51.568;6.998;2023-01-31T12:58:50;101241.63;;;7.07;100.00
3142;BME280;1581;51.568;6.998;2023-01-31T13:01:33;101237.34;;;7.31;100.00
3142;BME280;1581;51.568;6.998;2023-01-31T13:04:29;101243.38;;;7.41;100.00
3142;BME280;1581;51.568;6.998;2023-01-31T13:07:04;101243.09;;;7.52;100.00
3142;BME280;1581;51.568;6.998;2023-01-31T13:09:33;101249.22;;;7.53;100.00
3142;BME280;1581;51.568;6.998;2023-01-31T13:12:06;101251.06;;;7.52;100.00
3142;BME280;1581;51.568;6.998;2023-01-31T13:14:39;101238.25;;;7.73;100.00
3142;BME280;1581;51.568;6.998;2023-01-31T13:17:12;101244.34;;;7.66;100.00
3142;BME280;1581;51.568;6.998;2023-01-31T13:19:45;101243.03;;;7.44;100.00
3142;BME280;1581;51.568;6.998;2023-01-31T13:22:21;101236.19;;;7.34;100.00
3142;BME280;1581;51.568;6.998;2023-01-31T13:25:01;101252.59;;;7.37;100.00
3142;BME280;1581;51.568;6.998;2023-01-31T13:27:35;101249.53;;;7.24;100.00
3142;BME280;1581;51.568;6.998;2023-01-31T13:30:16;101244.50;;;7.13;100.00
3142;BME280;1581;51.568;6.998;2023-01-31T13:32:47;101233.53;;;7.08;100.00
3142;BME280;1581;51.568;6.998;2023-01-31T13:35:20;101233.56;;;7.16;100.00
3142;BME280;1581;51.568;6.998;2023-01-31T13:37:52;101223.03;;;7.24;100.00
3142;BME280;1581;51.568;6.998;2023-01-31T13:40:25;101227.59;;;7.14;100.00
3142;BME280;1581;51.568;6.998;2023-01-31T13:42:55;101220.84;;;7.20;100.00